Time;durP1;ratioP1;P1;durP2;ratioP2;P2;SDS_P1;SDS_P2;PMS_P1;PMS_P2;Temp;Humidity;BMP_temperature;BMP_pressure;BME280_temperature;BME280_humidity;BME280_pressure;Samples;Min_cycle;Max_cycle;Signal;HPM_P1;HPM_P2
2022/07/30 00:00:11;;;;;;;6.30;3.50;;;21.00;96.50;;;;;;6989969;28;20436;-85
2022/07/30 00:03:33;;;;;;;6.23;3.50;;;21.00;96.60;;;;;;6976378;28;20903;-83
2022/07/30 00:06:55;;;;;;;6.10;3.63;;;20.90;97.30;;;;;;6987948;28;20435;-83
2022/07/30 00:10:21;;;;;;;7.80;3.70;;;20.90;97.10;;;;;;6981926;28;20436;-84
2022/07/30 00:13:43;;;;;;;6.68;3.83;;;20.70;97.30;;;;;;6979140;28;20435;-84
2022/07/30 00:17:06;;;;;;;8.40;3.73;;;20.70;97.40;;;;;;6982729;28;20512;-83
2022/07/30 00:20:28;;;;;;;6.43;3.88;;;20.60;96.90;;;;;;6983760;28;20433;-83
2022/07/30 00:23:50;;;;;;;8.85;3.70;;;20.60;96.80;;;;;;6985439;28;20424;-84
2022/07/30 00:27:14;;;;;;;7.83;3.73;;;20.60;96.90;;;;;;6979032;28;20466;-84
2022/07/30 00:30:37;;;;;;;6.30;3.50;;;20.50;97.00;;;;;;6954875;28;20437;-84
2022/07/30 00:33:59;;;;;;;5.20;3.30;;;20.50;97.20;;;;;;6982137;28;20431;-82
2022/07/30 00:37:21;;;;;;;6.32;3.60;;;20.40;97.30;;;;;;6998589;28;20478;-84
2022/07/30 00:40:43;;;;;;;7.72;3.80;;;20.40;97.40;;;;;;6998666;28;20412;-83
2022/07/30 00:44:07;;;;;;;6.00;3.50;;;20.40;97.70;;;;;;7010437;28;20427;-83
2022/07/30 00:47:29;;;;;;;5.63;3.60;;;20.30;97.90;;;;;;7000308;28;20429;-82
2022/07/30 00:50:51;;;;;;;6.03;3.60;;;20.40;98.10;;;;;;7009707;28;20437;-84
2022/07/30 00:54:14;;;;;;;6.22;3.60;;;20.30;98.10;;;;;;7002337;28;20440;-84
2022/07/30 00:57:36;;;;;;;6.90;3.70;;;20.40;98.20;;;;;;6999477;28;20424;-85
2022/07/30 01:01:00;;;;;;;6.78;3.60;;;20.30;98.30;;;;;;7012822;28;20477;-82
2022/07/30 01:04:22;;;;;;;7.75;3.70;;;20.30;98.30;;;;;;6998794;28;20418;-83
2022/07/30 01:07:44;;;;;;;6.63;3.77;;;20.30;98.40;;;;;;6996414;28;20455;-84
2022/07/30 01:11:07;;;;;;;6.40;3.50;;;20.30;98.40;;;;;;6978389;28;20506;-84
2022/07/30 01:14:29;;;;;;;6.90;3.55;;;20.20;98.50;;;;;;7002040;28;20436;-80
2022/07/30 01:17:57;;;;;;;6.88;3.72;;;20.20;98.70;;;;;;6999316;28;20934;-85
2022/07/30 01:21:28;;;;;;;7.07;3.72;;;20.20;98.50;;;;;;6973431;28;20486;-84
2022/07/30 01:25:01;;;;;;;6.40;3.57;;;20.20;98.50;;;;;;6971843;28;20521;-84
2022/07/30 01:28:29;;;;;;;7.75;3.63;;;20.20;98.50;;;;;;6980289;28;20443;-83
2022/07/30 01:31:54;;;;;;;6.10;3.70;;;20.20;98.50;;;;;;6974378;28;20433;-84
2022/07/30 01:35:19;;;;;;;5.60;3.70;;;20.20;98.50;;;;;;6975158;28;20464;-85
2022/07/30 01:38:45;;;;;;;6.67;3.83;;;20.10;98.60;;;;;;6974356;28;20433;-83
2022/07/30 01:42:09;;;;;;;6.70;4.00;;;20.00;98.60;;;;;;6976550;28;20433;-85
2022/07/30 01:45:33;;;;;;;7.57;3.83;;;20.00;98.80;;;;;;6981933;28;20461;-84
2022/07/30 01:48:57;;;;;;;6.80;3.97;;;19.90;99.30;;;;;;6994552;28;20439;-83
2022/07/30 01:52:21;;;;;;;5.72;3.70;;;19.80;99.40;;;;;;6987715;28;20432;-83
2022/07/30 01:55:43;;;;;;;6.60;4.10;;;19.80;99.40;;;;;;7009074;28;20463;-83
2022/07/30 01:59:08;;;;;;;5.63;3.70;;;19.80;99.50;;;;;;7003882;28;20439;-85
2022/07/30 02:02:31;;;;;;;7.00;4.00;;;19.70;99.40;;;;;;6978451;28;20837;-84
2022/07/30 02:06:05;;;;;;;6.10;3.90;;;19.80;99.40;;;;;;6999341;28;20428;-85
2022/07/30 02:09:35;;;;;;;5.93;3.70;;;19.70;99.60;;;;;;7009347;28;20910;-84
2022/07/30 02:12:59;;;;;;;5.72;3.80;;;19.70;99.20;;;;;;7015923;28;20431;-84
2022/07/30 02:16:28;;;;;;;5.90;3.80;;;19.70;99.00;;;;;;7004770;28;20427;-84
2022/07/30 02:19:56;;;;;;;5.93;3.78;;;19.80;99.00;;;;;;7016291;28;20431;-84
2022/07/30 02:23:19;;;;;;;6.83;3.70;;;19.80;98.90;;;;;;7006078;28;20495;-85
2022/07/30 02:26:45;;;;;;;5.70;3.70;;;19.80;99.20;;;;;;7009725;28;20438;-84
2022/07/30 02:30:10;;;;;;;5.70;3.90;;;19.70;99.20;;;;;;6994413;28;20933;-85
2022/07/30 02:33:38;;;;;;;7.33;3.80;;;19.70;99.20;;;;;;6994645;28;20432;-85
2022/07/30 02:37:03;;;;;;;6.47;3.80;;;19.70;99.30;;;;;;6986617;28;20430;-87
2022/07/30 02:40:26;;;;;;;6.70;3.85;;;19.70;99.10;;;;;;6974463;28;20441;-85
2022/07/30 02:43:52;;;;;;;6.47;3.58;;;19.70;99.20;;;;;;6989921;28;20444;-86
2022/07/30 02:47:15;;;;;;;7.28;3.80;;;19.70;99.10;;;;;;6980545;28;20437;-86
2022/07/30 02:50:39;;;;;;;7.57;3.70;;;19.70;99.00;;;;;;6976384;28;20524;-86
2022/07/30 02:54:03;;;;;;;6.57;3.50;;;19.70;98.80;;;;;;6992115;28;20454;-87
2022/07/30 02:57:26;;;;;;;7.00;3.90;;;19.60;98.60;;;;;;6980316;28;20498;-85
2022/07/30 03:00:50;;;;;;;6.55;3.70;;;19.70;98.80;;;;;;6991718;28;20438;-84
2022/07/30 03:04:14;;;;;;;5.95;3.70;;;19.60;98.50;;;;;;6999764;28;20428;-84
2022/07/30 03:07:36;;;;;;;6.25;3.63;;;19.60;98.60;;;;;;6992949;28;20439;-85
2022/07/30 03:11:01;;;;;;;7.53;3.90;;;19.60;98.60;;;;;;7007122;28;20572;-83
2022/07/30 03:14:23;;;;;;;8.52;3.90;;;19.60;98.60;;;;;;6989417;28;20463;-83
2022/07/30 03:17:51;;;;;;;6.35;3.95;;;19.60;98.70;;;;;;6990678;28;20916;-83
2022/07/30 03:21:15;;;;;;;7.03;3.92;;;19.60;98.60;;;;;;6972254;28;20926;-85
2022/07/30 03:24:40;;;;;;;6.30;3.88;;;19.60;98.60;;;;;;6988234;28;20428;-81
2022/07/30 03:28:05;;;;;;;7.22;4.10;;;19.50;98.80;;;;;;6992576;28;20539;-82
2022/07/30 03:31:28;;;;;;;6.32;3.72;;;19.60;98.80;;;;;;6994955;28;20433;-84
2022/07/30 03:34:53;;;;;;;7.00;3.70;;;19.50;98.70;;;;;;6991120;28;20435;-85
2022/07/30 03:38:16;;;;;;;7.50;4.20;;;19.40;98.80;;;;;;6994920;28;20439;-84
2022/07/30 03:41:39;;;;;;;6.80;4.00;;;19.40;98.80;;;;;;6987704;28;21022;-83
2022/07/30 03:45:06;;;;;;;5.75;4.10;;;19.50;98.90;;;;;;6988000;28;20425;-87
2022/07/30 03:48:29;;;;;;;6.60;4.00;;;19.40;99.20;;;;;;6969276;28;20922;-85
2022/07/30 03:51:52;;;;;;;8.38;4.28;;;19.40;99.20;;;;;;6989688;28;20432;-86
2022/07/30 03:55:15;;;;;;;5.20;3.65;;;19.30;99.00;;;;;;6985874;28;20439;-86
2022/07/30 03:58:38;;;;;;;7.03;4.07;;;19.30;99.30;;;;;;6974061;28;20435;-85
2022/07/30 04:02:03;;;;;;;7.93;4.47;;;19.30;99.20;;;;;;6985201;28;20443;-84
2022/07/30 04:05:25;;;;;;;7.18;4.10;;;19.30;99.60;;;;;;6991098;28;20795;-86
2022/07/30 04:08:48;;;;;;;8.32;4.40;;;19.30;99.60;;;;;;6973938;28;20433;-86
2022/07/30 04:12:12;;;;;;;6.53;4.32;;;19.30;99.70;;;;;;6973072;28;20429;-84
2022/07/30 04:15:50;;;;;;;5.72;4.07;;;19.40;99.60;;;;;;6978296;28;20440;-79
2022/07/30 04:19:21;;;;;;;6.82;4.35;;;19.40;99.50;;;;;;6989273;28;20481;-79
2022/07/30 04:22:44;;;;;;;7.05;4.30;;;19.40;99.30;;;;;;6980541;28;20439;-80
2022/07/30 04:26:07;;;;;;;8.43;4.53;;;19.40;99.20;;;;;;6983159;28;20463;-78
2022/07/30 04:29:29;;;;;;;7.07;4.20;;;19.30;99.20;;;;;;6988874;28;20456;-78
2022/07/30 04:32:52;;;;;;;8.40;4.50;;;19.30;99.40;;;;;;6990923;28;20554;-80
2022/07/30 04:36:15;;;;;;;6.75;4.30;;;19.30;99.40;;;;;;6985565;28;20936;-79
2022/07/30 04:39:38;;;;;;;6.00;4.40;;;19.30;99.40;;;;;;6984802;28;20451;-80
2022/07/30 04:43:00;;;;;;;7.22;4.70;;;19.30;99.20;;;;;;6989326;28;20909;-80
2022/07/30 04:46:22;;;;;;;9.32;4.55;;;19.40;99.10;;;;;;6987642;28;21163;-81
2022/07/30 04:49:46;;;;;;;8.40;4.50;;;19.40;98.90;;;;;;6989149;28;20439;-79
2022/07/30 04:53:11;;;;;;;7.50;4.47;;;19.30;99.10;;;;;;6980791;28;20447;-80
2022/07/30 04:56:35;;;;;;;7.55;4.50;;;19.30;99.30;;;;;;6975507;28;20520;-80
2022/07/30 04:59:57;;;;;;;8.10;4.55;;;19.30;99.10;;;;;;6988021;28;20440;-80
2022/07/30 05:03:20;;;;;;;7.45;4.13;;;19.30;99.40;;;;;;6978850;28;20435;-79
2022/07/30 05:06:43;;;;;;;7.40;4.55;;;19.30;99.10;;;;;;6983833;28;20920;-79
2022/07/30 05:10:09;;;;;;;7.88;4.82;;;19.30;99.30;;;;;;6988151;28;20541;-82
2022/07/30 05:13:31;;;;;;;6.32;4.47;;;19.30;99.20;;;;;;6982438;28;20567;-80
2022/07/30 05:16:54;;;;;;;7.17;4.40;;;19.40;99.30;;;;;;6987509;28;20442;-79
2022/07/30 05:20:16;;;;;;;7.73;4.60;;;19.40;99.80;;;;;;6986070;28;20586;-80
2022/07/30 05:23:38;;;;;;;8.00;4.40;;;19.40;99.20;;;;;;6994031;28;20913;-81
2022/07/30 05:27:02;;;;;;;7.83;4.50;;;19.50;99.00;;;;;;6977729;28;20436;-80
2022/07/30 05:30:25;;;;;;;8.63;4.93;;;19.40;99.10;;;;;;6983421;28;20931;-80
2022/07/30 05:33:47;;;;;;;8.50;4.90;;;19.40;98.90;;;;;;6986176;28;20819;-80
2022/07/30 05:37:09;;;;;;;7.03;4.60;;;19.40;98.90;;;;;;6987633;28;20474;-82
2022/07/30 05:40:32;;;;;;;7.60;4.70;;;19.50;98.90;;;;;;6988970;28;20446;-80
2022/07/30 05:43:55;;;;;;;9.75;4.90;;;19.50;98.80;;;;;;6989869;28;20450;-81
2022/07/30 05:47:19;;;;;;;8.60;4.80;;;19.50;98.90;;;;;;6977471;28;20442;-81
2022/07/30 05:50:42;;;;;;;8.48;4.82;;;19.50;98.80;;;;;;6988970;28;20519;-82
2022/07/30 05:54:04;;;;;;;9.13;4.93;;;19.50;98.70;;;;;;6990658;28;20504;-82
2022/07/30 05:57:26;;;;;;;8.57;4.80;;;19.50;98.70;;;;;;6974170;28;20937;-82
2022/07/30 06:00:50;;;;;;;6.53;4.70;;;19.40;98.70;;;;;;6978990;28;20439;-81
2022/07/30 06:04:12;;;;;;;8.15;4.72;;;19.50;98.90;;;;;;6984897;28;20431;-79
2022/07/30 06:07:34;;;;;;;9.93;4.60;;;19.40;99.10;;;;;;6983625;28;20432;-82
2022/07/30 06:10:56;;;;;;;8.50;5.10;;;19.50;99.30;;;;;;6975294;28;20471;-80
2022/07/30 06:14:19;;;;;;;8.57;5.10;;;19.60;99.00;;;;;;6985916;28;21003;-81
2022/07/30 06:17:43;;;;;;;7.80;4.97;;;19.60;99.00;;;;;;6985965;28;20482;-80
2022/07/30 06:21:05;;;;;;;9.02;4.95;;;19.60;98.90;;;;;;6982903;28;20819;-81
2022/07/30 06:24:28;;;;;;;10.20;4.93;;;19.70;98.70;;;;;;6988913;28;20442;-80
2022/07/30 06:27:50;;;;;;;7.53;4.82;;;19.70;98.80;;;;;;6984840;28;20920;-80
2022/07/30 06:31:12;;;;;;;6.90;4.72;;;19.80;98.80;;;;;;6980748;28;20933;-79
2022/07/30 06:34:35;;;;;;;7.88;5.00;;;19.80;98.60;;;;;;6973143;28;20440;-79
2022/07/30 06:37:59;;;;;;;10.27;4.68;;;19.90;98.40;;;;;;6982319;28;20446;-81
2022/07/30 06:41:22;;;;;;;8.20;4.90;;;19.90;98.20;;;;;;6978777;28;20442;-80
2022/07/30 06:44:46;;;;;;;8.20;4.82;;;20.00;98.80;;;;;;6981868;28;20901;-81
2022/07/30 06:48:09;;;;;;;8.63;5.10;;;20.00;98.40;;;;;;6988860;28;20466;-80
2022/07/30 06:51:33;;;;;;;8.60;4.78;;;20.10;98.20;;;;;;6989490;28;20936;-81
2022/07/30 06:54:55;;;;;;;7.65;4.97;;;20.20;98.30;;;;;;6986739;28;20920;-80
2022/07/30 06:58:17;;;;;;;7.88;4.88;;;20.10;98.20;;;;;;6983405;28;20442;-80
2022/07/30 07:01:39;;;;;;;8.85;4.88;;;20.20;98.30;;;;;;6997666;28;20440;-81
2022/07/30 07:05:02;;;;;;;7.13;4.90;;;20.30;98.00;;;;;;6977832;28;20438;-78
2022/07/30 07:08:25;;;;;;;7.60;5.05;;;20.40;98.00;;;;;;6976438;28;20441;-77
2022/07/30 07:11:47;;;;;;;7.70;4.85;;;20.50;97.60;;;;;;6981823;28;20533;-79
2022/07/30 07:15:10;;;;;;;9.77;5.00;;;20.50;97.80;;;;;;6985904;28;21011;-79
2022/07/30 07:18:32;;;;;;;7.55;5.25;;;20.50;97.00;;;;;;6985403;28;20431;-77
2022/07/30 07:21:54;;;;;;;8.45;5.13;;;20.60;96.20;;;;;;6979991;28;20466;-78
2022/07/30 07:25:18;;;;;;;9.77;5.30;;;20.70;96.40;;;;;;6970349;28;20466;-77
2022/07/30 07:28:40;;;;;;;9.40;5.50;;;20.80;96.00;;;;;;6970419;28;20492;-76
2022/07/30 07:32:02;;;;;;;11.07;6.10;;;20.80;96.00;;;;;;6978558;28;20534;-77
2022/07/30 07:35:25;;;;;;;9.38;5.95;;;20.90;95.50;;;;;;6983214;28;20445;-77
2022/07/30 07:38:47;;;;;;;10.43;5.80;;;21.00;95.50;;;;;;6986854;28;20436;-79
2022/07/30 07:42:10;;;;;;;10.93;6.55;;;21.00;95.80;;;;;;6988689;28;20431;-78
2022/07/30 07:45:33;;;;;;;12.05;6.68;;;21.10;95.10;;;;;;6985344;28;20923;-78
2022/07/30 07:48:55;;;;;;;12.18;5.70;;;21.20;95.00;;;;;;6979918;28;20481;-77
2022/07/30 07:52:17;;;;;;;10.73;6.38;;;21.30;95.30;;;;;;6980015;28;20434;-77
2022/07/30 07:55:39;;;;;;;9.57;6.23;;;21.30;94.90;;;;;;6985611;28;20429;-78
2022/07/30 07:59:02;;;;;;;10.30;6.60;;;21.40;94.40;;;;;;6983449;28;20439;-75
2022/07/30 08:02:25;;;;;;;9.35;5.80;;;21.50;94.10;;;;;;6980178;28;20472;-79
2022/07/30 08:05:47;;;;;;;8.63;5.78;;;21.50;94.40;;;;;;6978565;28;20435;-78
2022/07/30 08:09:09;;;;;;;11.38;5.93;;;21.50;94.50;;;;;;6982480;28;20789;-77
2022/07/30 08:12:31;;;;;;;8.32;5.53;;;21.60;94.30;;;;;;6991890;28;20462;-79
2022/07/30 08:15:55;;;;;;;8.93;5.72;;;21.70;94.40;;;;;;6976564;28;20429;-77
2022/07/30 08:19:17;;;;;;;9.02;5.60;;;21.70;93.60;;;;;;6970283;28;21694;-78
2022/07/30 08:22:39;;;;;;;10.63;5.68;;;21.80;93.50;;;;;;6982082;28;20459;-77
2022/07/30 08:26:02;;;;;;;9.50;5.73;;;21.80;93.60;;;;;;6984165;28;20641;-75
2022/07/30 08:29:24;;;;;;;8.15;5.43;;;21.90;93.30;;;;;;6988270;28;20452;-76
2022/07/30 08:32:47;;;;;;;7.95;5.30;;;21.90;93.10;;;;;;6982801;28;20435;-78
2022/07/30 08:36:10;;;;;;;9.07;5.03;;;22.00;91.70;;;;;;6980964;28;20440;-75
2022/07/30 08:39:32;;;;;;;7.30;4.47;;;22.10;91.90;;;;;;6989199;28;20441;-78
2022/07/30 08:42:54;;;;;;;11.55;5.20;;;22.20;90.30;;;;;;6989254;28;20427;-79
2022/07/30 08:46:18;;;;;;;8.03;4.40;;;22.20;90.70;;;;;;6980315;28;20935;-78
2022/07/30 08:49:42;;;;;;;9.00;4.10;;;22.30;91.00;;;;;;6977685;28;20436;-80
2022/07/30 08:53:04;;;;;;;7.68;3.83;;;22.40;91.50;;;;;;6970144;28;21023;-78
2022/07/30 08:56:27;;;;;;;8.07;3.45;;;22.50;89.30;;;;;;6977023;28;20481;-79
2022/07/30 08:59:50;;;;;;;7.33;3.30;;;22.60;85.20;;;;;;6976905;28;20475;-77
2022/07/30 09:03:12;;;;;;;5.85;3.17;;;22.70;83.30;;;;;;6971846;28;20442;-76
2022/07/30 09:06:36;;;;;;;6.67;2.90;;;22.80;83.10;;;;;;6976662;28;20573;-79
2022/07/30 09:09:59;;;;;;;5.60;2.80;;;22.90;82.20;;;;;;6963972;28;20960;-78
2022/07/30 09:13:27;;;;;;;6.60;3.20;;;22.90;82.40;;;;;;6973831;28;20439;-79
2022/07/30 09:16:57;;;;;;;7.60;3.20;;;23.10;81.20;;;;;;6969770;28;20463;-79
2022/07/30 09:20:22;;;;;;;6.28;3.28;;;23.10;81.60;;;;;;6975091;28;20441;-77
2022/07/30 09:23:58;;;;;;;7.30;2.97;;;23.30;83.00;;;;;;6963052;28;20483;-79
2022/07/30 09:27:20;;;;;;;5.22;2.95;;;23.40;79.30;;;;;;6975790;28;20439;-79
2022/07/30 09:30:49;;;;;;;8.10;3.00;;;23.40;80.10;;;;;;6995385;28;20466;-79
2022/07/30 09:34:28;;;;;;;6.30;2.80;;;23.50;79.30;;;;;;6998945;28;20510;-80
2022/07/30 09:37:59;;;;;;;6.00;2.90;;;23.50;78.70;;;;;;7003396;28;20435;-80
2022/07/30 09:41:36;;;;;;;6.13;2.97;;;23.60;78.80;;;;;;6977351;28;20429;-80
2022/07/30 09:45:07;;;;;;;6.28;2.80;;;23.60;78.50;;;;;;6962233;28;20437;-79
2022/07/30 09:48:29;;;;;;;6.17;2.57;;;23.60;78.10;;;;;;6958406;28;20469;-78
2022/07/30 09:51:52;;;;;;;6.60;2.80;;;23.70;76.20;;;;;;6975203;28;20456;-79
2022/07/30 09:55:28;;;;;;;6.85;2.70;;;23.80;75.90;;;;;;6977629;28;20435;-76
2022/07/30 09:58:51;;;;;;;6.03;2.50;;;23.80;72.40;;;;;;6978219;28;20933;-78
2022/07/30 10:02:14;;;;;;;5.22;2.65;;;23.70;73.20;;;;;;6979885;28;20529;-81
2022/07/30 10:05:36;;;;;;;5.60;2.40;;;23.60;73.50;;;;;;6984388;28;20435;-77
2022/07/30 10:08:58;;;;;;;5.55;2.35;;;23.70;73.40;;;;;;6986713;28;20443;-79
2022/07/30 10:12:21;;;;;;;5.63;2.30;;;23.70;73.60;;;;;;6980269;28;20435;-75
2022/07/30 10:15:45;;;;;;;6.07;2.00;;;23.80;73.80;;;;;;6982315;28;20428;-76
2022/07/30 10:19:07;;;;;;;6.70;2.30;;;23.90;70.50;;;;;;6979478;28;20441;-77
2022/07/30 10:22:30;;;;;;;4.63;2.00;;;24.00;71.50;;;;;;6970093;28;20472;-78
2022/07/30 10:25:56;;;;;;;5.88;2.50;;;24.10;71.50;;;;;;6976926;28;20466;-78
2022/07/30 10:29:20;;;;;;;5.80;2.30;;;24.10;70.60;;;;;;6967870;28;20476;-79
2022/07/30 10:32:44;;;;;;;5.40;2.30;;;24.00;71.50;;;;;;6947440;28;20488;-74
2022/07/30 10:36:07;;;;;;;5.38;2.67;;;24.10;71.60;;;;;;6949984;28;20465;-77
2022/07/30 10:39:35;;;;;;;5.57;2.22;;;24.10;71.20;;;;;;6957619;28;20439;-78
2022/07/30 10:43:23;;;;;;;6.03;2.28;;;24.20;69.40;;;;;;6959471;28;20556;-79
2022/07/30 10:46:57;;;;;;;6.38;2.25;;;24.30;68.10;;;;;;6944598;28;20492;-77
2022/07/30 10:50:25;;;;;;;4.23;2.07;;;24.30;68.80;;;;;;6957984;28;20542;-79
2022/07/30 10:53:47;;;;;;;5.07;2.00;;;24.40;67.70;;;;;;6960388;28;20430;-77
2022/07/30 10:57:12;;;;;;;4.85;1.90;;;24.50;68.90;;;;;;6954015;28;20970;-79
2022/07/30 11:00:59;;;;;;;6.30;2.08;;;24.50;66.30;;;;;;6938735;28;20979;-76
2022/07/30 11:04:23;;;;;;;4.43;1.90;;;24.50;66.30;;;;;;6937825;28;20503;-76
2022/07/30 11:07:47;;;;;;;5.13;1.80;;;24.60;66.00;;;;;;6949664;28;20945;-76
2022/07/30 11:11:50;;;;;;;4.90;1.90;;;24.60;65.60;;;;;;6956951;28;21097;-76
2022/07/30 11:15:13;;;;;;;5.85;1.90;;;24.60;65.80;;;;;;6941559;28;20425;-77
2022/07/30 11:19:04;;;;;;;5.27;1.73;;;24.70;66.30;;;;;;6947119;28;20437;-77
2022/07/30 11:22:30;;;;;;;6.00;1.93;;;24.80;64.70;;;;;;6958235;28;20492;-78
2022/07/30 11:25:54;;;;;;;4.60;2.17;;;24.90;64.90;;;;;;6959979;28;20433;-80
2022/07/30 11:29:39;;;;;;;5.53;1.90;;;25.00;64.20;;;;;;6952852;28;20441;-80
2022/07/30 11:33:26;;;;;;;5.50;1.92;;;25.00;63.50;;;;;;6986703;28;20431;-77
2022/07/30 11:37:13;;;;;;;6.20;1.90;;;25.20;64.70;;;;;;6967517;28;20435;-76
2022/07/30 11:40:38;;;;;;;7.53;4.10;;;25.30;64.10;;;;;;6966011;28;20464;-77
2022/07/30 11:44:28;;;;;;;5.43;2.67;;;25.30;63.70;;;;;;6966245;28;20436;-79
2022/07/30 11:47:52;;;;;;;4.38;1.90;;;25.40;63.50;;;;;;6966688;28;20444;-80
2022/07/30 11:51:14;;;;;;;4.45;1.65;;;25.40;65.60;;;;;;6969554;28;20472;-77
2022/07/30 11:54:52;;;;;;;6.68;1.75;;;25.40;61.00;;;;;;6967002;28;20943;-77
2022/07/30 11:58:26;;;;;;;6.47;1.75;;;25.50;61.90;;;;;;6967299;28;20787;-76
2022/07/30 12:01:55;;;;;;;4.70;1.90;;;25.50;60.70;;;;;;6939053;28;20523;-77
2022/07/30 12:05:24;;;;;;;5.33;1.80;;;25.40;62.00;;;;;;6951113;28;20460;-78
2022/07/30 12:08:49;;;;;;;4.75;1.90;;;25.60;61.80;;;;;;6966793;28;20894;-76
2022/07/30 12:12:22;;;;;;;5.03;1.80;;;25.70;62.10;;;;;;6992300;28;20435;-78
2022/07/30 12:15:47;;;;;;;4.80;1.80;;;25.90;60.70;;;;;;6971646;28;20440;-76
2022/07/30 12:19:10;;;;;;;4.03;1.60;;;26.00;59.80;;;;;;6969164;28;20468;-84
2022/07/30 12:22:33;;;;;;;4.25;1.75;;;25.90;58.90;;;;;;6967167;28;20527;-78
2022/07/30 12:25:56;;;;;;;3.90;1.90;;;25.80;60.50;;;;;;6965880;28;20495;-74
2022/07/30 12:29:18;;;;;;;5.47;1.70;;;25.80;61.70;;;;;;6968581;28;20472;-86
2022/07/30 12:32:41;;;;;;;5.05;1.88;;;25.80;60.60;;;;;;6968770;28;20437;-86
2022/07/30 12:36:05;;;;;;;4.50;1.85;;;25.90;62.10;;;;;;6967624;28;20523;-85
2022/07/30 12:39:27;;;;;;;4.97;1.90;;;26.00;64.10;;;;;;6970708;28;20787;-84
2022/07/30 12:42:51;;;;;;;5.10;1.83;;;25.90;61.20;;;;;;6964787;28;20433;-87
2022/07/30 12:46:16;;;;;;;6.23;1.80;;;26.00;62.40;;;;;;6966114;28;20436;-83
2022/07/30 12:49:38;;;;;;;4.65;1.70;;;26.10;62.20;;;;;;6968669;28;20425;-84
2022/07/30 12:53:03;;;;;;;3.80;1.70;;;26.10;58.60;;;;;;6974938;28;20431;-83
2022/07/30 12:56:28;;;;;;;3.92;1.60;;;26.10;59.10;;;;;;6971326;28;20441;-84
2022/07/30 13:00:02;;;;;;;4.63;1.60;;;26.00;59.10;;;;;;6980204;28;20656;-80
2022/07/30 13:03:27;;;;;;;4.10;1.60;;;26.10;60.10;;;;;;6975889;28;20822;-79
2022/07/30 13:07:07;;;;;;;4.70;1.95;;;26.10;59.90;;;;;;6969283;28;20799;-79
2022/07/30 13:10:30;;;;;;;3.75;1.50;;;26.20;59.10;;;;;;6979004;28;20465;-82
2022/07/30 13:13:53;;;;;;;4.03;1.50;;;26.10;57.80;;;;;;6978615;28;20432;-82
2022/07/30 13:17:18;;;;;;;4.28;1.50;;;26.20;58.80;;;;;;6977033;28;20526;-81
2022/07/30 13:20:40;;;;;;;4.90;1.65;;;26.30;57.40;;;;;;6978103;28;20447;-81
2022/07/30 13:24:02;;;;;;;4.35;1.60;;;26.20;56.00;;;;;;6985737;28;20470;-81
2022/07/30 13:27:26;;;;;;;3.50;1.50;;;26.20;56.80;;;;;;6975674;28;20460;-82
2022/07/30 13:30:49;;;;;;;3.83;1.60;;;26.40;58.50;;;;;;6977087;28;20791;-80
2022/07/30 13:34:11;;;;;;;3.35;1.45;;;26.50;57.20;;;;;;6968935;28;20552;-80
2022/07/30 13:37:33;;;;;;;5.25;1.52;;;26.50;55.40;;;;;;6988671;28;20438;-82
2022/07/30 13:40:55;;;;;;;3.87;1.50;;;26.60;56.30;;;;;;6991122;28;20470;-80
2022/07/30 13:44:19;;;;;;;3.35;1.48;;;26.70;55.90;;;;;;6983748;28;20443;-83
2022/07/30 13:47:42;;;;;;;4.20;1.50;;;26.80;57.60;;;;;;6989160;28;20451;-84
2022/07/30 13:51:06;;;;;;;3.83;1.52;;;27.00;55.80;;;;;;6975253;28;20942;-80
2022/07/30 13:54:29;;;;;;;4.55;1.40;;;27.00;55.10;;;;;;6989939;28;20499;-80
2022/07/30 13:57:51;;;;;;;4.00;1.50;;;27.10;55.90;;;;;;6985891;28;20441;-84
2022/07/30 14:01:15;;;;;;;4.15;1.30;;;27.20;55.20;;;;;;6986063;28;20501;-80
2022/07/30 14:04:37;;;;;;;3.90;1.38;;;27.10;54.80;;;;;;6983393;28;20826;-80
2022/07/30 14:08:00;;;;;;;4.07;1.30;;;27.20;55.50;;;;;;6988776;28;20447;-84
2022/07/30 14:11:22;;;;;;;4.97;1.90;;;27.30;55.50;;;;;;6986273;28;21082;-79
2022/07/30 14:14:44;;;;;;;4.18;1.50;;;27.50;55.70;;;;;;6973005;28;20460;-80
2022/07/30 14:18:08;;;;;;;5.10;1.60;;;27.80;56.30;;;;;;6975299;28;20806;-81
2022/07/30 14:21:30;;;;;;;3.88;1.38;;;27.80;54.40;;;;;;6992965;28;20441;-82
2022/07/30 14:24:52;;;;;;;4.10;1.50;;;27.90;53.20;;;;;;6983528;28;20435;-81
2022/07/30 14:28:19;;;;;;;3.80;1.50;;;27.80;53.80;;;;;;6986633;28;20436;-82
2022/07/30 14:31:41;;;;;;;3.50;1.50;;;27.80;55.00;;;;;;6982117;28;20466;-81
2022/07/30 14:35:11;;;;;;;3.83;1.60;;;28.00;54.70;;;;;;6981208;28;20429;-81
2022/07/30 14:38:38;;;;;;;3.58;1.83;;;27.90;54.60;;;;;;6975842;28;20528;-80
2022/07/30 14:42:01;;;;;;;3.25;1.52;;;27.80;53.60;;;;;;6973943;28;20449;-79
2022/07/30 14:45:23;;;;;;;4.30;1.83;;;27.90;53.60;;;;;;6986894;28;20535;-79
2022/07/30 14:48:45;;;;;;;3.28;1.50;;;28.20;54.40;;;;;;6983861;28;20452;-79
2022/07/30 14:52:09;;;;;;;3.63;1.50;;;28.20;54.10;;;;;;6979791;28;20445;-80
2022/07/30 14:55:31;;;;;;;3.78;1.58;;;28.00;54.30;;;;;;6981944;28;20562;-78
2022/07/30 14:58:55;;;;;;;4.10;2.00;;;27.90;55.60;;;;;;6979476;28;20438;-80
2022/07/30 15:02:17;;;;;;;4.75;2.10;;;27.90;54.50;;;;;;6978635;28;20441;-79
2022/07/30 15:05:42;;;;;;;4.77;2.13;;;28.00;53.70;;;;;;6976975;28;20439;-79
2022/07/30 15:09:06;;;;;;;3.50;1.60;;;28.20;53.90;;;;;;6986620;28;20501;-79
2022/07/30 15:12:29;;;;;;;4.35;1.70;;;27.90;52.90;;;;;;6972567;28;20444;-79
2022/07/30 15:15:51;;;;;;;4.25;1.70;;;27.80;53.80;;;;;;6980329;28;20429;-79
2022/07/30 15:19:15;;;;;;;4.47;1.40;;;27.60;54.70;;;;;;6979408;28;20459;-80
2022/07/30 15:22:39;;;;;;;4.43;1.50;;;27.50;53.80;;;;;;6978408;28;20441;-80
2022/07/30 15:26:03;;;;;;;3.63;1.60;;;27.60;54.20;;;;;;6979022;28;20444;-81
2022/07/30 15:29:30;;;;;;;4.22;1.50;;;27.80;53.90;;;;;;6985247;28;20445;-81
2022/07/30 15:32:55;;;;;;;4.45;1.50;;;28.00;54.40;;;;;;6973422;28;21351;-82
2022/07/30 15:36:17;;;;;;;5.90;1.67;;;28.10;54.00;;;;;;6990030;28;20503;-79
2022/07/30 15:39:39;;;;;;;4.65;1.50;;;28.20;54.40;;;;;;6984586;28;20530;-81
2022/07/30 15:43:05;;;;;;;3.40;1.50;;;28.10;54.20;;;;;;6992638;28;20434;-78
2022/07/30 15:46:30;;;;;;;4.53;1.50;;;28.00;55.30;;;;;;6984871;28;20433;-78
2022/07/30 15:49:52;;;;;;;3.28;1.50;;;27.90;54.50;;;;;;6987255;28;20442;-78
2022/07/30 15:53:14;;;;;;;3.60;1.40;;;27.90;55.10;;;;;;6979920;28;20470;-77
2022/07/30 15:56:36;;;;;;;4.07;1.48;;;28.00;56.00;;;;;;6981385;28;20478;-77
2022/07/30 16:00:00;;;;;;;5.60;2.40;;;28.10;55.50;;;;;;6986815;28;20434;-77
2022/07/30 16:03:22;;;;;;;4.82;2.45;;;28.10;56.20;;;;;;6978111;28;20578;-78
2022/07/30 16:06:45;;;;;;;5.70;2.43;;;28.00;54.80;;;;;;6985837;28;20435;-79
2022/07/30 16:10:08;;;;;;;3.35;1.45;;;27.90;54.30;;;;;;6967673;28;20511;-78
2022/07/30 16:13:32;;;;;;;3.47;1.40;;;28.00;54.30;;;;;;6978992;28;20437;-79
2022/07/30 16:16:55;;;;;;;5.28;1.70;;;27.80;54.60;;;;;;6966391;28;20495;-78
2022/07/30 16:20:17;;;;;;;3.80;1.80;;;27.80;55.20;;;;;;6969077;28;20433;-77
2022/07/30 16:23:42;;;;;;;5.22;2.00;;;27.70;54.90;;;;;;6985947;28;20541;-78
2022/07/30 16:27:04;;;;;;;3.50;1.87;;;27.60;55.10;;;;;;6983591;28;20435;-79
2022/07/30 16:30:27;;;;;;;5.18;1.73;;;27.60;55.70;;;;;;6980480;28;20463;-77
2022/07/30 16:33:50;;;;;;;3.92;1.60;;;27.50;55.60;;;;;;6986088;28;20990;-77
2022/07/30 16:37:14;;;;;;;4.57;1.90;;;27.60;55.90;;;;;;6977700;28;20433;-78
2022/07/30 16:40:36;;;;;;;5.63;2.10;;;27.50;56.10;;;;;;6969280;28;20427;-77
2022/07/30 16:43:58;;;;;;;3.20;1.70;;;27.50;57.60;;;;;;7008609;28;20514;-77
2022/07/30 16:47:20;;;;;;;4.00;2.00;;;27.40;58.70;;;;;;6992700;28;20433;-77
2022/07/30 16:50:44;;;;;;;5.87;1.83;;;27.40;60.20;;;;;;7010659;28;20443;-79
2022/07/30 16:54:07;;;;;;;3.95;1.60;;;27.40;60.50;;;;;;7010519;28;20423;-80
2022/07/30 16:57:29;;;;;;;3.60;1.60;;;27.40;61.90;;;;;;6997439;28;20498;-79
2022/07/30 17:00:51;;;;;;;4.75;1.67;;;27.10;64.00;;;;;;7010200;28;20442;-79
2022/07/30 17:04:13;;;;;;;5.30;1.90;;;27.10;64.10;;;;;;6989350;28;20427;-78
2022/07/30 17:07:37;;;;;;;5.80;1.83;;;27.40;65.20;;;;;;6987914;28;20434;-79
2022/07/30 17:10:59;;;;;;;5.57;2.30;;;27.90;63.80;;;;;;6977368;28;20919;-79
2022/07/30 17:14:21;;;;;;;4.55;2.08;;;28.30;60.40;;;;;;6963958;28;20506;-76
2022/07/30 17:17:44;;;;;;;4.70;2.50;;;28.60;58.90;;;;;;6974179;28;20428;-77
2022/07/30 17:21:06;;;;;;;4.20;1.80;;;28.90;58.70;;;;;;6973171;28;20947;-77
2022/07/30 17:24:30;;;;;;;3.78;1.67;;;29.00;57.80;;;;;;6979805;28;20437;-76
2022/07/30 17:27:52;;;;;;;4.37;1.73;;;29.00;55.80;;;;;;6962014;28;20465;-77
2022/07/30 17:31:14;;;;;;;4.97;2.25;;;29.10;56.80;;;;;;6966710;28;20440;-79
2022/07/30 17:34:36;;;;;;;5.32;1.85;;;29.00;57.60;;;;;;6982226;28;20428;-79
2022/07/30 17:37:58;;;;;;;4.05;1.90;;;29.00;56.60;;;;;;6973727;28;20464;-78
2022/07/30 17:41:22;;;;;;;3.45;1.70;;;29.10;57.50;;;;;;6971662;28;20478;-76